createdAt,value
2023-05-05T00:01:25.853Z,12.20
2023-05-05T00:03:52.717Z,12.20
2023-05-05T00:06:19.439Z,12.20
2023-05-05T00:08:46.375Z,12.20
2023-05-05T00:11:13.066Z,12.20
2023-05-05T00:13:39.796Z,12.20
2023-05-05T00:16:06.711Z,12.20
2023-05-05T00:18:33.833Z,12.20
2023-05-05T00:21:00.886Z,12.20
2023-05-05T00:23:27.827Z,12.20
2023-05-05T00:25:54.541Z,12.20
2023-05-05T00:28:21.229Z,12.20
2023-05-05T00:30:48.002Z,12.30
2023-05-05T00:33:15.260Z,12.30
2023-05-05T00:35:42.204Z,12.30
2023-05-05T00:38:09.422Z,12.30
2023-05-05T00:40:37.877Z,12.40
2023-05-05T00:43:05.165Z,12.40
2023-05-05T00:45:32.077Z,12.30
2023-05-05T00:48:00.590Z,12.40
2023-05-05T00:50:30.342Z,12.30
2023-05-05T00:53:00.962Z,12.30
2023-05-05T00:55:32.206Z,12.30
2023-05-05T00:57:59.991Z,12.40
2023-05-05T01:00:28.588Z,12.40
2023-05-05T01:02:55.874Z,12.30
2023-05-05T01:05:24.686Z,12.30
2023-05-05T01:08:23.382Z,12.20
2023-05-05T01:10:57.308Z,12.30
2023-05-05T01:14:02.176Z,12.20
2023-05-05T01:16:31.247Z,12.20
2023-05-05T01:19:15.040Z,12.20
2023-05-05T01:21:49.618Z,12.20
2023-05-05T01:24:35.022Z,12.20
2023-05-05T01:27:40.391Z,12.20
2023-05-05T01:30:28.162Z,12.10
2023-05-05T01:33:00.831Z,12.00
2023-05-05T01:35:31.781Z,12.10
2023-05-05T01:38:19.162Z,11.90
2023-05-05T01:40:52.200Z,11.80
2023-05-05T01:43:22.643Z,11.90
2023-05-05T01:45:50.578Z,11.90
2023-05-05T01:48:19.468Z,11.90
2023-05-05T01:50:48.227Z,11.90
2023-05-05T01:53:17.552Z,12.00
2023-05-05T01:55:45.978Z,12.00
2023-05-05T01:58:14.166Z,12.00
2023-05-05T02:00:42.732Z,12.00
2023-05-05T02:03:12.067Z,12.00
2023-05-05T02:05:40.372Z,12.00
2023-05-05T02:08:09.504Z,11.90
2023-05-05T02:10:40.971Z,12.00
2023-05-05T02:13:10.800Z,12.10
2023-05-05T02:15:39.062Z,12.20
2023-05-05T02:18:07.295Z,12.30
2023-05-05T02:20:36.030Z,12.30
2023-05-05T02:23:05.618Z,12.30
2023-05-05T02:25:43.269Z,12.40
2023-05-05T02:28:17.165Z,12.30
2023-05-05T02:30:45.888Z,12.40
2023-05-05T02:33:19.244Z,12.40
2023-05-05T02:35:47.875Z,12.40
2023-05-05T02:38:17.625Z,12.30
2023-05-05T02:40:49.690Z,12.30
2023-05-05T02:43:21.353Z,12.30
2023-05-05T02:45:48.493Z,12.20
2023-05-05T02:48:16.561Z,12.10
2023-05-05T02:50:43.296Z,12.10
2023-05-05T02:53:25.582Z,12.00
2023-05-05T02:56:25.938Z,12.00
2023-05-05T02:59:07.790Z,11.90
2023-05-05T03:01:49.157Z,12.00
2023-05-05T03:04:27.688Z,11.90
2023-05-05T03:06:59.468Z,11.90
2023-05-05T03:09:37.186Z,11.80
2023-05-05T03:12:08.388Z,11.90
2023-05-05T03:14:46.765Z,11.90
2023-05-05T03:17:18.170Z,11.80
2023-05-05T03:19:47.532Z,11.80
2023-05-05T03:22:14.679Z,11.80
2023-05-05T03:24:50.717Z,11.80
2023-05-05T03:27:21.081Z,11.80
2023-05-05T03:29:47.982Z,11.80
2023-05-05T03:32:16.372Z,11.80
2023-05-05T03:34:43.955Z,11.80
2023-05-05T03:37:10.920Z,11.80
2023-05-05T03:39:39.569Z,11.70
2023-05-05T03:42:07.932Z,11.70
2023-05-05T03:44:35.637Z,11.70
2023-05-05T03:47:02.629Z,11.70
2023-05-05T03:49:31.681Z,11.70
2023-05-05T03:51:58.534Z,11.70
2023-05-05T03:54:25.362Z,11.70
2023-05-05T03:56:52.091Z,11.70
2023-05-05T03:59:18.746Z,11.70
2023-05-05T04:01:46.616Z,11.70
2023-05-05T04:04:13.428Z,11.70
2023-05-05T04:06:40.870Z,11.70
2023-05-05T04:09:08.502Z,11.80
2023-05-05T04:11:36.434Z,11.80
2023-05-05T04:14:03.274Z,11.80
2023-05-05T04:16:31.077Z,11.90
2023-05-05T04:18:58.996Z,11.90
2023-05-05T04:21:25.632Z,11.90
2023-05-05T04:23:52.870Z,11.90
2023-05-05T04:26:21.083Z,11.90
2023-05-05T04:28:48.157Z,11.90
2023-05-05T04:31:16.616Z,11.90
2023-05-05T04:33:44.774Z,11.90
2023-05-05T04:36:12.522Z,11.90
2023-05-05T04:38:39.381Z,11.90
2023-05-05T04:41:06.483Z,11.90
2023-05-05T04:43:34.313Z,11.90
2023-05-05T04:46:02.122Z,11.90
2023-05-05T04:48:31.714Z,11.80
2023-05-05T04:50:58.400Z,11.80
2023-05-05T04:53:25.131Z,11.80
2023-05-05T04:55:51.859Z,11.70
2023-05-05T04:58:18.620Z,11.70
2023-05-05T05:00:45.793Z,11.70
2023-05-05T05:03:12.494Z,11.80
2023-05-05T05:05:39.178Z,11.80
2023-05-05T05:08:06.231Z,11.80
2023-05-05T05:10:33.046Z,11.90
2023-05-05T05:13:00.173Z,12.00
2023-05-05T05:15:27.895Z,12.00
2023-05-05T05:17:54.815Z,12.10
2023-05-05T05:20:21.669Z,12.20
2023-05-05T05:22:48.334Z,12.30
2023-05-05T05:25:18.164Z,12.40
2023-05-05T05:27:52.328Z,12.50
2023-05-05T05:30:29.873Z,12.60
2023-05-05T05:32:56.661Z,12.70
2023-05-05T05:35:23.364Z,13.00
2023-05-05T05:37:51.711Z,13.50
2023-05-05T05:40:18.587Z,13.70
2023-05-05T05:42:45.282Z,13.90
2023-05-05T05:45:12.098Z,14.10
2023-05-05T05:47:40.284Z,13.90
2023-05-05T05:50:07.773Z,13.70
2023-05-05T05:52:36.122Z,14.20
2023-05-05T05:55:05.762Z,13.90
2023-05-05T05:57:32.495Z,13.70
2023-05-05T06:00:01.554Z,13.40
2023-05-05T06:02:38.655Z,13.50
2023-05-05T06:05:08.396Z,13.50
2023-05-05T06:07:35.474Z,13.50
2023-05-05T06:10:14.481Z,13.40
2023-05-05T06:12:49.472Z,13.40
2023-05-05T06:15:16.253Z,13.90
2023-05-05T06:17:43.179Z,13.80
2023-05-05T06:20:10.938Z,13.80
2023-05-05T06:22:39.228Z,13.50
2023-05-05T06:25:06.542Z,13.50
2023-05-05T06:27:33.196Z,13.30
2023-05-05T06:29:59.865Z,13.50
2023-05-05T06:32:26.557Z,13.40
2023-05-05T06:34:53.391Z,13.50
2023-05-05T06:37:20.474Z,13.50
2023-05-05T06:39:47.255Z,13.60
2023-05-05T06:42:13.916Z,13.70
2023-05-05T06:44:40.700Z,13.70
2023-05-05T06:47:08.099Z,14.10
2023-05-05T06:49:34.833Z,14.30
2023-05-05T06:52:02.272Z,14.60
2023-05-05T06:54:29.555Z,15.10
2023-05-05T06:56:57.572Z,15.40
2023-05-05T06:59:26.149Z,15.10
2023-05-05T07:01:52.864Z,15.20
2023-05-05T07:04:19.598Z,14.90
2023-05-05T07:06:46.344Z,14.90
2023-05-05T07:09:14.771Z,15.00
2023-05-05T07:11:42.340Z,15.00
2023-05-05T07:14:09.017Z,15.00
2023-05-05T07:16:37.227Z,14.90
2023-05-05T07:19:06.117Z,14.80
2023-05-05T07:21:34.567Z,14.60
2023-05-05T07:24:03.014Z,14.40
2023-05-05T07:26:29.835Z,14.20
2023-05-05T07:28:58.535Z,13.70
2023-05-05T07:31:26.198Z,13.30
2023-05-05T07:33:52.919Z,13.20
2023-05-05T07:36:20.345Z,13.20
2023-05-05T07:38:47.009Z,13.30
2023-05-05T07:41:13.749Z,13.30
2023-05-05T07:43:44.281Z,13.50
2023-05-05T07:46:12.389Z,13.70
2023-05-05T07:48:41.556Z,13.80
2023-05-05T07:51:09.250Z,13.90
2023-05-05T07:53:36.390Z,14.10
2023-05-05T07:56:03.457Z,14.20
2023-05-05T07:58:30.156Z,14.20
2023-05-05T08:00:56.908Z,14.20
2023-05-05T08:03:24.900Z,14.10
2023-05-05T08:05:56.416Z,13.90
2023-05-05T08:08:24.755Z,13.70
2023-05-05T08:10:52.942Z,13.70
2023-05-05T08:13:19.759Z,13.50
2023-05-05T08:15:46.529Z,13.30
2023-05-05T08:18:13.994Z,13.30
2023-05-05T08:20:40.691Z,13.20
2023-05-05T08:23:07.405Z,13.30
2023-05-05T08:25:34.102Z,13.10
2023-05-05T08:28:00.826Z,13.10
2023-05-05T08:30:27.774Z,13.10
2023-05-05T08:32:55.108Z,13.00
2023-05-05T08:35:22.546Z,13.00
2023-05-05T08:37:50.659Z,13.10
2023-05-05T08:40:29.034Z,13.30
2023-05-05T08:42:56.237Z,13.60
2023-05-05T08:45:22.898Z,13.70
2023-05-05T08:47:49.632Z,14.40
2023-05-05T08:50:19.043Z,14.80
2023-05-05T08:52:53.657Z,15.30
2023-05-05T08:55:26.249Z,15.20
2023-05-05T08:57:57.089Z,15.10
2023-05-05T09:00:24.682Z,15.30
2023-05-05T09:02:52.036Z,15.70
2023-05-05T09:05:18.786Z,16.10
2023-05-05T09:07:47.119Z,16.20
2023-05-05T09:10:14.374Z,16.30
2023-05-05T09:12:41.967Z,16.30
2023-05-05T09:15:10.494Z,15.90
2023-05-05T09:17:38.375Z,15.90
2023-05-05T09:20:09.818Z,15.60
2023-05-05T09:22:41.543Z,15.80
2023-05-05T09:25:12.816Z,16.10
2023-05-05T09:27:48.908Z,16.50
2023-05-05T09:30:26.971Z,17.20
2023-05-05T09:32:55.337Z,17.20
2023-05-05T09:35:23.143Z,17.90
2023-05-05T09:37:49.818Z,18.10
2023-05-05T09:40:18.505Z,17.50
2023-05-05T09:42:45.610Z,17.70
2023-05-05T09:45:18.522Z,17.70
2023-05-05T09:47:49.132Z,17.70
2023-05-05T09:50:18.865Z,18.30
2023-05-05T09:53:02.645Z,18.40
2023-05-05T09:55:32.919Z,18.60
2023-05-05T09:58:27.363Z,19.50
2023-05-05T10:00:56.035Z,18.30
2023-05-05T10:03:23.537Z,18.80
2023-05-05T10:05:52.171Z,18.90
2023-05-05T10:08:21.063Z,19.10
2023-05-05T10:10:52.421Z,19.60
2023-05-05T10:13:21.318Z,19.30
2023-05-05T10:15:51.047Z,19.40
2023-05-05T10:18:23.958Z,19.10
2023-05-05T10:21:00.044Z,19.60
2023-05-05T10:23:42.935Z,20.00
2023-05-05T10:26:12.530Z,20.40
2023-05-05T10:28:50.887Z,20.40
2023-05-05T10:31:38.782Z,20.80
2023-05-05T10:34:10.860Z,20.50
2023-05-05T10:36:39.395Z,19.90
2023-05-05T10:39:09.237Z,20.00
2023-05-05T10:41:36.947Z,19.90
2023-05-05T10:44:04.679Z,20.60
2023-05-05T10:46:32.249Z,20.10
2023-05-05T10:49:11.658Z,20.80
2023-05-05T10:51:59.965Z,21.70
2023-05-05T10:54:38.336Z,22.40
2023-05-05T10:57:09.587Z,22.40
2023-05-05T10:59:36.797Z,21.30
2023-05-05T11:02:29.774Z,22.50
2023-05-05T11:05:10.153Z,22.00
2023-05-05T11:07:37.794Z,22.00
2023-05-05T11:10:11.898Z,22.20
2023-05-05T11:13:02.791Z,23.10
2023-05-05T11:15:30.502Z,22.30
2023-05-05T11:17:59.519Z,21.40
2023-05-05T11:20:52.631Z,21.10
2023-05-05T11:23:19.372Z,20.90
2023-05-05T11:25:47.092Z,21.40
2023-05-05T11:28:19.051Z,21.50
2023-05-05T11:30:54.780Z,21.70
2023-05-05T11:33:32.515Z,22.60
2023-05-05T11:36:08.807Z,21.80
2023-05-05T11:39:02.852Z,23.20
2023-05-05T11:41:32.581Z,23.50
2023-05-05T11:44:12.166Z,23.80
2023-05-05T11:47:04.915Z,23.10
2023-05-05T11:49:32.750Z,23.00
2023-05-05T11:52:02.189Z,22.40
2023-05-05T11:54:29.621Z,22.40
2023-05-05T11:57:10.166Z,21.80
2023-05-05T11:59:49.795Z,23.10
2023-05-05T12:02:18.089Z,23.90
2023-05-05T12:04:45.116Z,24.10
2023-05-05T12:07:16.794Z,24.60
2023-05-05T12:09:45.811Z,24.80
2023-05-05T12:12:13.373Z,24.10
2023-05-05T12:14:54.271Z,24.40
2023-05-05T12:17:22.772Z,23.60
2023-05-05T12:19:54.934Z,22.70
2023-05-05T12:22:26.152Z,23.50
2023-05-05T12:25:01.241Z,23.70
2023-05-05T12:27:28.961Z,25.30
2023-05-05T12:29:57.349Z,24.50
2023-05-05T12:32:28.107Z,24.10
2023-05-05T12:34:57.512Z,23.20
2023-05-05T12:37:25.851Z,23.00
2023-05-05T12:39:54.876Z,23.20
2023-05-05T12:42:22.592Z,23.90
2023-05-05T12:44:49.714Z,23.70
2023-05-05T12:47:33.080Z,23.80
2023-05-05T12:50:00.643Z,24.00
2023-05-05T12:52:48.041Z,24.70
2023-05-05T12:55:14.683Z,24.00
2023-05-05T12:58:02.283Z,22.80
2023-05-05T13:00:29.149Z,22.70
2023-05-05T13:02:56.712Z,23.00
2023-05-05T13:05:36.205Z,23.60
2023-05-05T13:08:02.880Z,24.00
2023-05-05T13:10:31.097Z,23.20
2023-05-05T13:12:58.443Z,22.00
2023-05-05T13:15:25.998Z,22.10
2023-05-05T13:18:00.043Z,22.50
2023-05-05T13:20:28.071Z,22.10
2023-05-05T13:22:54.786Z,22.30
2023-05-05T13:25:21.483Z,22.00
2023-05-05T13:27:48.151Z,21.70
2023-05-05T13:30:15.339Z,21.80
2023-05-05T13:32:42.189Z,21.60
2023-05-05T13:35:09.327Z,21.40
2023-05-05T13:37:36.274Z,21.30
2023-05-05T13:40:03.136Z,21.60
2023-05-05T13:42:29.775Z,21.80
2023-05-05T13:44:56.483Z,22.00
2023-05-05T13:47:23.227Z,22.00
2023-05-05T13:49:50.060Z,22.40
2023-05-05T13:52:16.719Z,21.80
2023-05-05T13:54:43.394Z,21.40
2023-05-05T13:57:11.116Z,21.40
2023-05-05T13:59:37.879Z,21.30
2023-05-05T14:02:04.598Z,21.30
2023-05-05T14:04:31.419Z,21.20
2023-05-05T14:06:58.463Z,21.30
2023-05-05T14:09:25.248Z,21.30
2023-05-05T14:11:51.971Z,21.10
2023-05-05T14:14:19.579Z,21.00
2023-05-05T14:16:48.511Z,21.10
2023-05-05T14:19:16.637Z,21.10
2023-05-05T14:21:43.261Z,21.20
2023-05-05T14:24:09.971Z,21.10
2023-05-05T14:26:36.675Z,21.00
2023-05-05T14:29:03.414Z,20.90
2023-05-05T14:31:30.085Z,21.00
2023-05-05T14:33:56.745Z,21.00
2023-05-05T14:36:23.688Z,20.90
2023-05-05T14:38:50.514Z,20.70
2023-05-05T14:41:17.242Z,20.50
2023-05-05T14:43:43.898Z,20.20
2023-05-05T14:46:10.658Z,20.20
2023-05-05T14:48:37.594Z,20.20
2023-05-05T14:51:04.705Z,20.10
2023-05-05T14:53:31.461Z,20.00
2023-05-05T14:55:58.109Z,19.90
2023-05-05T14:58:24.859Z,19.90
2023-05-05T15:00:54.764Z,19.70
2023-05-05T15:03:21.509Z,19.50
2023-05-05T15:05:48.571Z,19.20
2023-05-05T15:08:15.378Z,19.00
2023-05-05T15:10:42.115Z,18.90
2023-05-05T15:13:09.075Z,18.60
2023-05-05T15:15:35.816Z,17.80
2023-05-05T15:18:02.713Z,16.30
2023-05-05T15:20:29.612Z,15.50
2023-05-05T15:22:56.742Z,15.10
2023-05-05T15:25:23.809Z,14.80
2023-05-05T15:27:50.505Z,14.70
2023-05-05T15:30:17.269Z,14.70
2023-05-05T15:32:44.096Z,14.60
2023-05-05T15:35:11.057Z,14.40
2023-05-05T15:37:37.906Z,14.30
2023-05-05T15:40:08.068Z,14.20
2023-05-05T15:42:36.760Z,14.20
2023-05-05T15:45:04.386Z,14.20
2023-05-05T15:47:31.236Z,14.40
2023-05-05T15:49:57.914Z,14.30
2023-05-05T15:52:24.619Z,14.30
2023-05-05T15:54:51.279Z,14.40
2023-05-05T15:57:17.986Z,14.40
2023-05-05T15:59:44.971Z,14.30
2023-05-05T16:02:11.815Z,14.50
2023-05-05T16:04:38.466Z,14.40
2023-05-05T16:07:05.730Z,14.60
2023-05-05T16:09:32.466Z,14.70
2023-05-05T16:11:59.272Z,14.60
2023-05-05T16:14:27.704Z,14.80
2023-05-05T16:16:55.470Z,14.80
2023-05-05T16:19:23.360Z,14.70
2023-05-05T16:21:50.035Z,14.70
2023-05-05T16:24:17.074Z,14.60
2023-05-05T16:26:44.180Z,14.60
2023-05-05T16:29:11.813Z,14.60
2023-05-05T16:31:38.871Z,14.60
2023-05-05T16:34:05.772Z,14.40
2023-05-05T16:36:32.625Z,14.40
2023-05-05T16:38:59.459Z,14.30
2023-05-05T16:41:26.828Z,14.30
2023-05-05T16:43:53.713Z,14.40
2023-05-05T16:46:20.416Z,14.30
2023-05-05T16:48:47.234Z,14.20
2023-05-05T16:51:14.065Z,14.20
2023-05-05T16:53:40.737Z,14.30
2023-05-05T16:56:07.847Z,14.30
2023-05-05T16:58:34.648Z,14.20
2023-05-05T17:01:03.634Z,14.20
2023-05-05T17:03:30.530Z,14.30
2023-05-05T17:05:57.351Z,14.30
2023-05-05T17:08:24.101Z,14.30
2023-05-05T17:10:50.805Z,14.40
2023-05-05T17:13:17.569Z,14.30
2023-05-05T17:15:44.466Z,14.30
2023-05-05T17:18:11.272Z,14.30
2023-05-05T17:20:38.006Z,14.30
2023-05-05T17:23:05.107Z,14.40
2023-05-05T17:25:32.093Z,14.40
2023-05-05T17:27:58.799Z,14.50
2023-05-05T17:30:25.680Z,14.40
2023-05-05T17:32:52.556Z,14.30
2023-05-05T17:35:19.476Z,14.20
2023-05-05T17:37:46.235Z,14.30
2023-05-05T17:40:13.967Z,14.20
2023-05-05T17:42:40.786Z,14.30
2023-05-05T17:45:08.539Z,14.20
2023-05-05T17:47:35.979Z,14.10
2023-05-05T17:50:03.084Z,14.20
2023-05-05T17:52:29.914Z,14.20
2023-05-05T17:54:56.905Z,14.20
2023-05-05T17:57:23.629Z,14.00
2023-05-05T17:59:51.907Z,13.90
2023-05-05T18:02:19.095Z,13.90
2023-05-05T18:04:46.398Z,14.00
2023-05-05T18:07:14.560Z,14.00
2023-05-05T18:09:41.660Z,14.00
2023-05-05T18:12:08.340Z,13.90
2023-05-05T18:14:35.071Z,13.90
2023-05-05T18:17:02.253Z,13.90
2023-05-05T18:19:28.943Z,13.90
2023-05-05T18:21:55.702Z,13.80
2023-05-05T18:24:22.950Z,13.80
2023-05-05T18:26:51.756Z,13.80
2023-05-05T18:29:19.565Z,13.70
2023-05-05T18:31:49.166Z,13.60
2023-05-05T18:34:16.783Z,13.60
2023-05-05T18:36:43.715Z,13.60
2023-05-05T18:39:10.387Z,13.50
2023-05-05T18:41:37.212Z,13.40
2023-05-05T18:44:03.923Z,13.40
2023-05-05T18:46:30.791Z,13.30
2023-05-05T18:48:57.535Z,13.30
2023-05-05T18:51:24.204Z,13.40
2023-05-05T18:53:50.887Z,13.50
2023-05-05T18:56:17.545Z,13.30
2023-05-05T18:58:44.270Z,13.30
2023-05-05T19:01:10.993Z,13.30
2023-05-05T19:03:37.712Z,13.30
2023-05-05T19:06:07.520Z,13.30
2023-05-05T19:08:34.321Z,13.30
2023-05-05T19:11:01.062Z,13.20
2023-05-05T19:13:27.702Z,13.30
2023-05-05T19:15:57.006Z,13.20
2023-05-05T19:18:24.332Z,13.20
2023-05-05T19:20:50.968Z,13.20
2023-05-05T19:23:17.659Z,13.10
2023-05-05T19:25:45.431Z,13.20
2023-05-05T19:28:12.166Z,13.30
2023-05-05T19:30:38.920Z,13.40
2023-05-05T19:33:05.776Z,13.30
2023-05-05T19:35:32.608Z,13.30
2023-05-05T19:37:59.387Z,13.40
2023-05-05T19:40:26.074Z,13.30
2023-05-05T19:42:52.805Z,13.30
2023-05-05T19:45:19.552Z,13.30
2023-05-05T19:47:46.296Z,13.30
2023-05-05T19:50:15.255Z,13.30
2023-05-05T19:52:42.235Z,13.30
2023-05-05T19:55:10.541Z,13.20
2023-05-05T19:57:37.420Z,13.30
2023-05-05T20:00:04.677Z,13.20
2023-05-05T20:02:31.684Z,13.20
2023-05-05T20:04:58.501Z,13.20
2023-05-05T20:07:25.886Z,13.20
2023-05-05T20:09:52.560Z,13.20
2023-05-05T20:12:21.397Z,13.10
2023-05-05T20:14:48.056Z,13.00
2023-05-05T20:17:17.356Z,12.90
2023-05-05T20:19:44.020Z,12.90
2023-05-05T20:22:10.701Z,12.80
2023-05-05T20:24:37.465Z,12.80
2023-05-05T20:27:05.628Z,12.70
2023-05-05T20:29:32.297Z,12.70
2023-05-05T20:31:58.964Z,12.70
2023-05-05T20:34:27.103Z,12.70
2023-05-05T20:36:54.494Z,12.70
2023-05-05T20:39:21.227Z,12.70
2023-05-05T20:41:48.303Z,12.70
2023-05-05T20:44:14.971Z,12.70
2023-05-05T20:46:41.709Z,12.70
2023-05-05T20:49:08.480Z,12.70
2023-05-05T20:51:35.267Z,12.60
2023-05-05T20:54:02.993Z,12.60
2023-05-05T20:56:29.641Z,12.50
2023-05-05T20:58:56.749Z,12.50
2023-05-05T21:01:23.499Z,12.40
2023-05-05T21:03:50.461Z,12.40
2023-05-05T21:06:19.389Z,12.30
2023-05-05T21:08:47.237Z,12.30
2023-05-05T21:11:13.935Z,12.20
2023-05-05T21:13:40.629Z,12.20
2023-05-05T21:16:07.427Z,12.10
2023-05-05T21:18:34.076Z,12.20
2023-05-05T21:21:02.153Z,12.30
2023-05-05T21:23:30.190Z,12.40
2023-05-05T21:25:56.920Z,12.40
2023-05-05T21:28:23.601Z,12.50
2023-05-05T21:33:22.686Z,12.50
2023-05-05T21:35:49.374Z,12.60
2023-05-05T21:38:16.640Z,12.60
2023-05-05T21:40:43.337Z,12.60
2023-05-05T21:43:09.998Z,12.60
2023-05-05T21:45:36.665Z,12.70
2023-05-05T21:48:03.536Z,12.70
2023-05-05T21:50:30.280Z,12.70
2023-05-05T21:52:57.040Z,12.70
2023-05-05T21:55:23.710Z,12.70
2023-05-05T21:57:50.509Z,12.70
2023-05-05T22:00:17.325Z,12.70
2023-05-05T22:02:45.328Z,12.70
2023-05-05T22:05:12.290Z,12.70
2023-05-05T22:07:39.395Z,12.70
2023-05-05T22:10:06.661Z,12.70
2023-05-05T22:12:33.397Z,12.80
2023-05-05T22:15:00.249Z,12.70
2023-05-05T22:17:27.709Z,12.70
2023-05-05T22:19:54.375Z,12.70
2023-05-05T22:22:21.150Z,12.60
2023-05-05T22:24:47.847Z,12.60
2023-05-05T22:27:14.515Z,12.60
2023-05-05T22:29:41.273Z,12.60
2023-05-05T22:32:07.923Z,12.50
2023-05-05T22:34:37.808Z,12.50
2023-05-05T22:37:04.475Z,12.50
2023-05-05T22:39:31.244Z,12.50
2023-05-05T22:41:58.036Z,12.50
2023-05-05T22:44:24.700Z,12.40
2023-05-05T22:46:52.490Z,12.50
2023-05-05T22:49:19.281Z,12.50
2023-05-05T22:51:46.930Z,12.50
2023-05-05T22:54:13.594Z,12.40
2023-05-05T22:56:40.394Z,12.40
2023-05-05T22:59:07.156Z,12.30
2023-05-05T23:01:39.438Z,12.30
2023-05-05T23:04:06.483Z,12.30
2023-05-05T23:06:33.883Z,12.30
2023-05-05T23:09:00.907Z,12.30
2023-05-05T23:11:27.580Z,12.30
2023-05-05T23:13:54.262Z,12.30
2023-05-05T23:16:21.535Z,12.30
2023-05-05T23:18:48.221Z,12.30
2023-05-05T23:21:14.897Z,12.30
2023-05-05T23:23:41.607Z,12.20
2023-05-05T23:26:08.266Z,12.30
2023-05-05T23:28:35.328Z,12.30
2023-05-05T23:31:02.597Z,12.30
2023-05-05T23:33:29.278Z,12.20
2023-05-05T23:35:55.988Z,12.30
2023-05-05T23:38:22.725Z,12.30
2023-05-05T23:40:49.399Z,12.30
2023-05-05T23:43:16.194Z,12.30
2023-05-05T23:45:42.859Z,12.30
2023-05-05T23:48:10.393Z,12.30
2023-05-05T23:50:37.075Z,12.30
2023-05-05T23:53:03.702Z,12.30
2023-05-05T23:55:30.391Z,12.30
2023-05-05T23:57:57.143Z,12.30
